Springdale, AR (72762)

11:46 PM CDT on August 28, 2015 (GMT -0500)
N.W. Springdale | | Change Station
CLOSE
Current Station
Personal Weather Station
Location: Springdale, AR
Elevation: 1302 ft
Nearby Weather Stations

Elev 1302 ft 36.20 °N, 94.16 °W | Updated 19 seconds ago

Scattered Clouds
Scattered Clouds
72.9 °F
Feels Like 74 °F
N
0.0
Wind Variable Wind from SSW
Gusts 7.0 mph

Today
High -- | Low -- °F
--% Chance of Precip.
Yesterday
High -- | Low -- °F
Precip. -- in
6:44 AM 7:50 PM
Waxing Gibbous, 99% visible
Pressure 30.01 in
Visibility 10.0 miles
Clouds Scattered Clouds 8000 ft
Heat Index 74 °F
Dew Point 64 °F
Humidity 74%
Rainfall in
Snow Depth Not available.
UV 0 out of 12
Pollen 9.40 out of 12
Air Quality Not available.
Flu Activity Not available.
METAR KASG 290148Z 13005KT 10SM SCT080 24/17 A3001
Pressure 30.01 in
Visibility 10.0 miles
Clouds Scattered Clouds 8000 ft
Heat Index 74 °F
Dew Point 64 °F
Humidity 74%
Rainfall in
Snow Depth Not available.
UV 0 out of 12
Pollen 9.40 out of 12
Air Quality Not available.
Flu Activity Not available.
METAR KASG 290148Z 13005KT 10SM SCT080 24/17 A3001

10-Day Weather Forecast

×

Almanac

Astronomy

Aug. 28, 2015 Rise Set
Actual Time
Civil Twilight
Nautical Twilight
Astronomical Twilight
Moon
Length of Visible Light
Length of Day
Tomorrow will be .
, % of the Moon is Illuminated

Today's Extremes

State Highs State Lows

Community

WunderPhotos

Upload Photos

1,850,614 photos uploaded!

WunderBlogs® & News

Nearby

Air Quality

  Air Quality AQ Index Pollutant
Not available.

Snow Depth

Station Depth Elevation

Earthquake Activity

City Distance Mag. Time & Date
Minimum magnitude displayed is 2.5.

Coastal Water Temperatures

Place Temperature

Stations

Nearby Weather Stations

Station Location Temp. Windchill Dew Point Humidity Wind Precip. Elev Updated Type